Time;durP1;ratioP1;P1;durP2;ratioP2;P2;SDS_P1;SDS_P2;PMS_P1;PMS_P2;Temp;Humidity;BMP_temperature;BMP_pressure;BME280_temperature;BME280_humidity;BME280_pressure;Samples;Min_cycle;Max_cycle;Signal;HPM_P1;HPM_P2
2022/03/29 00:00:40;;;;;;;13.77;8.45;;;;;;;;;;5036876;28;20101;-65
2022/03/29 00:03:07;;;;;;;16.08;8.43;;;;;;;;;;5036233;28;20064;-64
2022/03/29 00:05:33;;;;;;;13.60;8.15;;;;;;;;;;5036553;28;20045;-65
2022/03/29 00:07:59;;;;;;;12.93;8.27;;;;;;;;;;5036388;28;20075;-65
2022/03/29 00:10:25;;;;;;;13.32;7.72;;;;;;;;;;5036944;28;20029;-65
2022/03/29 00:12:53;;;;;;;14.40;8.45;;;;;;;;;;5036474;28;20033;-65
2022/03/29 00:15:20;;;;;;;13.63;7.80;;;;;;;;;;5036702;28;20473;-65
2022/03/29 00:17:45;;;;;;;15.70;8.98;;;;;;;;;;5036132;28;20068;-65
2022/03/29 00:20:11;;;;;;;13.23;8.38;;;;;;;;;;5036638;28;20056;-65
2022/03/29 00:22:36;;;;;;;17.05;9.32;;;;;;;;;;5036229;28;20036;-65
2022/03/29 00:25:02;;;;;;;16.48;8.93;;;;;;;;;;5036581;28;20025;-65
2022/03/29 00:27:28;;;;;;;14.85;8.90;;;;;;;;;;5034947;28;20116;-65
2022/03/29 00:29:53;;;;;;;14.63;9.02;;;;;;;;;;5036523;28;20029;-64
2022/03/29 00:32:18;;;;;;;13.85;8.77;;;;;;;;;;5036253;28;20022;-64
2022/03/29 00:34:44;;;;;;;15.50;8.80;;;;;;;;;;5036482;28;20032;-65
2022/03/29 00:37:09;;;;;;;15.73;8.70;;;;;;;;;;5036199;28;20025;-65
2022/03/29 00:39:35;;;;;;;14.55;8.57;;;;;;;;;;5036044;28;20405;-64
2022/03/29 00:42:01;;;;;;;16.13;9.13;;;;;;;;;;5036426;28;20508;-65
2022/03/29 00:44:31;;;;;;;16.25;9.18;;;;;;;;;;5036302;28;20100;-65
2022/03/29 00:46:58;;;;;;;14.38;8.77;;;;;;;;;;5036212;28;20032;-65
2022/03/29 00:49:24;;;;;;;15.88;9.05;;;;;;;;;;5036327;28;20038;-65
2022/03/29 00:51:55;;;;;;;13.40;8.80;;;;;;;;;;5036399;28;20025;-65
2022/03/29 00:54:21;;;;;;;14.20;8.95;;;;;;;;;;5032978;28;20108;-64
2022/03/29 00:56:46;;;;;;;14.18;8.32;;;;;;;;;;5033082;28;20493;-65
2022/03/29 00:59:13;;;;;;;16.70;9.07;;;;;;;;;;5032618;28;20036;-64
2022/03/29 01:01:38;;;;;;;15.90;9.02;;;;;;;;;;5033106;28;20385;-65
2022/03/29 01:04:06;;;;;;;13.63;8.27;;;;;;;;;;5032740;28;20478;-65
2022/03/29 01:06:31;;;;;;;12.48;7.97;;;;;;;;;;5032953;28;20049;-65
2022/03/29 01:08:58;;;;;;;14.35;7.78;;;;;;;;;;5032693;28;20032;-65
2022/03/29 01:11:25;;;;;;;17.75;8.75;;;;;;;;;;5032918;28;20040;-64
2022/03/29 01:13:51;;;;;;;16.15;8.50;;;;;;;;;;5032455;28;20036;-65
2022/03/29 01:19:05;;;;;;;16.10;8.25;;;;;;;;;;5032269;28;20075;-65
2022/03/29 01:21:32;;;;;;;14.20;8.38;;;;;;;;;;5032767;28;20022;-65
2022/03/29 01:23:59;;;;;;;14.13;8.48;;;;;;;;;;5031136;28;20511;-65
2022/03/29 01:26:25;;;;;;;13.95;8.73;;;;;;;;;;5032561;28;20025;-65
2022/03/29 01:28:51;;;;;;;13.65;8.25;;;;;;;;;;5032339;28;20461;-65
2022/03/29 01:31:16;;;;;;;17.10;8.90;;;;;;;;;;5032367;28;20037;-64
2022/03/29 01:33:43;;;;;;;13.27;8.43;;;;;;;;;;5032089;28;20036;-64
2022/03/29 01:36:09;;;;;;;14.23;9.00;;;;;;;;;;5032674;28;20256;-65
2022/03/29 01:38:34;;;;;;;13.73;7.82;;;;;;;;;;5031957;28;20275;-65
2022/03/29 01:41:05;;;;;;;15.60;8.98;;;;;;;;;;5032370;28;20028;-64
2022/03/29 01:43:31;;;;;;;;;;;;;;;;;;5032475;28;20029;-64
2022/03/29 01:45:56;;;;;;;17.45;8.30;;;;;;;;;;5032176;28;19917;-64
2022/03/29 01:48:23;;;;;;;16.05;8.55;;;;;;;;;;5031674;28;20450;-65
2022/03/29 01:50:49;;;;;;;13.32;8.73;;;;;;;;;;5032198;28;20033;-65
2022/03/29 01:53:23;;;;;;;16.45;8.70;;;;;;;;;;5032023;28;20022;-65
2022/03/29 01:55:48;;;;;;;14.40;8.63;;;;;;;;;;5032159;28;20032;-64
2022/03/29 01:58:15;;;;;;;16.80;8.70;;;;;;;;;;5031627;28;20104;-65
2022/03/29 02:00:41;;;;;;;15.80;8.30;;;;;;;;;;5032095;28;20028;-65
2022/03/29 02:03:09;;;;;;;16.63;8.30;;;;;;;;;;5030421;28;20291;-65
2022/03/29 02:05:35;;;;;;;14.18;8.40;;;;;;;;;;5031422;28;20124;-65
2022/03/29 02:08:01;;;;;;;17.73;8.35;;;;;;;;;;5032119;28;20025;-63
2022/03/29 02:10:27;;;;;;;13.70;8.68;;;;;;;;;;5032111;28;20109;-64
2022/03/29 02:12:54;;;;;;;14.60;8.75;;;;;;;;;;5031783;28;20053;-65
2022/03/29 02:15:20;;;;;;;16.08;8.30;;;;;;;;;;5031415;28;20049;-65
2022/03/29 02:17:48;;;;;;;11.60;7.95;;;;;;;;;;5031708;28;20049;-65
2022/03/29 02:20:14;;;;;;;15.80;8.20;;;;;;;;;;5031252;28;20083;-64
2022/03/29 02:22:40;;;;;;;16.45;8.20;;;;;;;;;;5031394;28;20054;-65
2022/03/29 02:25:06;;;;;;;14.02;8.30;;;;;;;;;;5031380;28;20095;-65
2022/03/29 02:27:32;;;;;;;12.90;7.72;;;;;;;;;;5031335;28;20026;-64
2022/03/29 02:29:57;;;;;;;13.40;8.43;;;;;;;;;;5031195;28;20500;-65
2022/03/29 02:32:22;;;;;;;14.25;8.18;;;;;;;;;;5031305;28;20048;-65
2022/03/29 02:34:48;;;;;;;16.52;7.90;;;;;;;;;;5031105;28;20036;-65
2022/03/29 02:37:14;;;;;;;14.50;8.38;;;;;;;;;;5031242;28;20184;-65
2022/03/29 02:39:40;;;;;;;14.30;7.90;;;;;;;;;;5030687;28;20025;-65
2022/03/29 02:42:07;;;;;;;13.10;8.10;;;;;;;;;;5031246;28;20026;-65
2022/03/29 02:44:33;;;;;;;13.73;7.97;;;;;;;;;;5030934;28;20052;-65
2022/03/29 02:46:59;;;;;;;13.75;8.10;;;;;;;;;;5031059;28;20473;-65
2022/03/29 02:49:25;;;;;;;15.60;8.90;;;;;;;;;;5030742;28;20100;-64
2022/03/29 02:51:51;;;;;;;13.98;8.27;;;;;;;;;;5031535;28;20508;-65
2022/03/29 02:54:16;;;;;;;14.48;8.07;;;;;;;;;;5030605;28;20477;-65
2022/03/29 02:56:42;;;;;;;17.55;8.60;;;;;;;;;;5030683;28;20571;-65
2022/03/29 02:59:08;;;;;;;13.45;8.07;;;;;;;;;;5030801;28;20029;-65
2022/03/29 03:01:33;;;;;;;15.00;8.45;;;;;;;;;;5030689;28;20402;-64
2022/03/29 03:03:59;;;;;;;14.63;8.23;;;;;;;;;;5030461;28;20037;-64
2022/03/29 03:06:25;;;;;;;18.83;8.40;;;;;;;;;;5030502;28;20058;-65
2022/03/29 03:08:50;;;;;;;15.27;8.15;;;;;;;;;;5030419;28;20029;-65
2022/03/29 03:11:16;;;;;;;13.88;8.27;;;;;;;;;;5030464;28;20389;-64
2022/03/29 03:13:41;;;;;;;16.40;8.23;;;;;;;;;;5030461;28;20029;-65
2022/03/29 03:16:07;;;;;;;18.17;8.68;;;;;;;;;;5030131;28;20120;-65
2022/03/29 03:18:32;;;;;;;14.05;8.63;;;;;;;;;;5029875;28;20029;-64
2022/03/29 03:21:01;;;;;;;15.82;8.20;;;;;;;;;;5030299;28;20029;-65
2022/03/29 03:23:27;;;;;;;14.80;8.68;;;;;;;;;;5030794;28;20138;-65
2022/03/29 03:25:52;;;;;;;17.20;8.85;;;;;;;;;;5030229;28;20434;-65
2022/03/29 03:28:17;;;;;;;16.08;9.10;;;;;;;;;;5030248;28;20029;-65
2022/03/29 03:30:43;;;;;;;16.02;8.98;;;;;;;;;;5030170;28;20031;-64
2022/03/29 03:33:09;;;;;;;14.55;8.23;;;;;;;;;;5030085;28;20033;-65
2022/03/29 03:35:34;;;;;;;14.65;8.65;;;;;;;;;;5030531;28;20108;-64
2022/03/29 03:38:00;;;;;;;14.30;8.57;;;;;;;;;;5030261;28;20030;-65
2022/03/29 03:40:25;;;;;;;17.27;8.90;;;;;;;;;;5030098;28;20033;-64
2022/03/29 03:42:51;;;;;;;17.10;8.18;;;;;;;;;;5030467;28;20448;-65
2022/03/29 03:45:16;;;;;;;16.98;8.40;;;;;;;;;;5030082;28;20032;-64
2022/03/29 03:47:42;;;;;;;14.88;8.75;;;;;;;;;;5030546;28;20033;-65
2022/03/29 03:50:08;;;;;;;14.63;8.27;;;;;;;;;;5029925;28;20083;-64
2022/03/29 03:52:34;;;;;;;15.48;8.82;;;;;;;;;;5030252;28;20060;-64
2022/03/29 03:55:00;;;;;;;17.48;8.32;;;;;;;;;;5029989;28;20053;-64
2022/03/29 03:57:26;;;;;;;15.50;8.98;;;;;;;;;;5030374;28;20030;-64
2022/03/29 03:59:55;;;;;;;13.32;8.48;;;;;;;;;;5029648;28;20041;-65
2022/03/29 04:02:20;;;;;;;15.63;7.82;;;;;;;;;;5030475;28;20363;-64
2022/03/29 04:04:46;;;;;;;15.20;8.70;;;;;;;;;;5029686;28;20025;-64
2022/03/29 04:07:11;;;;;;;16.45;8.52;;;;;;;;;;5030038;28;20563;-64
2022/03/29 04:09:38;;;;;;;14.93;8.52;;;;;;;;;;5030003;28;20045;-64
2022/03/29 04:12:07;;;;;;;13.30;8.05;;;;;;;;;;5029995;28;20026;-64
2022/03/29 04:14:32;;;;;;;13.68;8.20;;;;;;;;;;5029950;28;20022;-64
2022/03/29 04:16:58;;;;;;;14.68;8.07;;;;;;;;;;5029623;28;20393;-65
2022/03/29 04:19:24;;;;;;;17.80;8.35;;;;;;;;;;5029686;28;20036;-64
2022/03/29 04:21:49;;;;;;;15.73;8.07;;;;;;;;;;5029637;28;20072;-65
2022/03/29 04:24:15;;;;;;;17.58;8.07;;;;;;;;;;5029953;28;20030;-64
2022/03/29 04:26:41;;;;;;;14.05;7.78;;;;;;;;;;5029752;28;20429;-65
2022/03/29 04:29:06;;;;;;;13.20;7.90;;;;;;;;;;5030788;28;20088;-64
2022/03/29 04:31:32;;;;;;;15.93;7.93;;;;;;;;;;5033462;28;20033;-65
2022/03/29 04:33:59;;;;;;;15.13;8.02;;;;;;;;;;5033503;28;20116;-65
2022/03/29 04:36:25;;;;;;;15.77;8.00;;;;;;;;;;5033289;28;20079;-64
2022/03/29 04:38:51;;;;;;;17.92;7.85;;;;;;;;;;5033276;28;20037;-64
2022/03/29 04:41:16;;;;;;;14.45;8.35;;;;;;;;;;5033241;28;20493;-64
2022/03/29 04:43:42;;;;;;;13.95;7.90;;;;;;;;;;5033476;28;20389;-64
2022/03/29 04:46:07;;;;;;;15.80;7.93;;;;;;;;;;5031896;28;20030;-64
2022/03/29 04:48:33;;;;;;;16.27;7.95;;;;;;;;;;5033186;28;20056;-65
2022/03/29 04:50:58;;;;;;;15.52;8.20;;;;;;;;;;5033156;28;20021;-65
2022/03/29 04:53:24;;;;;;;21.90;8.70;;;;;;;;;;5033231;28;20481;-64
2022/03/29 04:55:50;;;;;;;13.93;8.13;;;;;;;;;;5032942;28;20025;-65
2022/03/29 04:58:16;;;;;;;16.60;7.88;;;;;;;;;;5032916;28;20136;-65
2022/03/29 05:00:43;;;;;;;19.65;8.25;;;;;;;;;;5032696;28;20026;-65
2022/03/29 05:03:08;;;;;;;18.70;8.45;;;;;;;;;;5033338;28;20034;-64
2022/03/29 05:05:33;;;;;;;18.48;8.23;;;;;;;;;;5032749;28;20560;-65
2022/03/29 05:08:00;;;;;;;20.17;8.70;;;;;;;;;;5032970;28;20045;-64
2022/03/29 05:10:26;;;;;;;17.40;8.50;;;;;;;;;;5032556;28;20028;-65
2022/03/29 05:12:51;;;;;;;20.65;8.38;;;;;;;;;;5032793;28;20018;-65
2022/03/29 05:15:18;;;;;;;15.98;8.60;;;;;;;;;;5032700;28;20022;-65
2022/03/29 05:17:45;;;;;;;19.15;8.63;;;;;;;;;;5032626;28;20029;-65
2022/03/29 05:20:11;;;;;;;12.88;7.93;;;;;;;;;;5032614;28;20033;-64
2022/03/29 05:22:55;;;;;;;21.48;8.50;;;;;;;;;;5032515;28;20521;-65
2022/03/29 05:25:23;;;;;;;15.73;8.32;;;;;;;;;;5032483;28;20029;-65
2022/03/29 05:27:52;;;;;;;13.35;8.13;;;;;;;;;;5032344;28;20108;-64
2022/03/29 05:30:18;;;;;;;17.05;8.63;;;;;;;;;;5032377;28;20022;-65
2022/03/29 05:32:43;;;;;;;15.32;8.43;;;;;;;;;;5032298;28;20500;-64
2022/03/29 05:35:10;;;;;;;17.98;8.90;;;;;;;;;;5032594;28;20702;-64
2022/03/29 05:37:37;;;;;;;15.38;8.30;;;;;;;;;;5032250;28;20030;-65
2022/03/29 05:40:04;;;;;;;16.63;8.98;;;;;;;;;;5031668;28;20533;-65
2022/03/29 05:42:30;;;;;;;16.77;8.60;;;;;;;;;;5031964;28;20060;-65
2022/03/29 05:44:55;;;;;;;20.88;9.00;;;;;;;;;;5032237;28;20057;-65
2022/03/29 05:50:06;;;;;;;18.33;8.52;;;;;;;;;;5032032;28;20075;-64
2022/03/29 05:52:32;;;;;;;18.30;8.75;;;;;;;;;;5031925;28;20125;-65
2022/03/29 05:54:57;;;;;;;18.55;8.90;;;;;;;;;;5032069;28;20112;-65
2022/03/29 05:57:23;;;;;;;18.45;9.40;;;;;;;;;;5031856;28;20125;-65
2022/03/29 05:59:49;;;;;;;17.77;8.98;;;;;;;;;;5031701;28;20087;-65
2022/03/29 06:02:14;;;;;;;23.55;9.25;;;;;;;;;;5031566;28;20033;-64
2022/03/29 06:04:40;;;;;;;23.80;8.77;;;;;;;;;;5031927;28;20044;-65
2022/03/29 06:07:07;;;;;;;24.45;9.25;;;;;;;;;;5031381;28;20065;-65
2022/03/29 06:09:33;;;;;;;29.38;11.82;;;;;;;;;;5031530;28;20040;-68
2022/03/29 06:11:59;;;;;;;33.17;11.27;;;;;;;;;;5031679;28;20064;-64
2022/03/29 06:14:24;;;;;;;29.48;11.90;;;;;;;;;;5031765;28;20065;-65
2022/03/29 06:16:50;;;;;;;18.70;10.00;;;;;;;;;;5031524;28;20072;-64
2022/03/29 06:19:15;;;;;;;22.13;9.40;;;;;;;;;;5031210;28;20025;-65
2022/03/29 06:21:41;;;;;;;17.40;9.30;;;;;;;;;;5031203;28;20075;-65
2022/03/29 06:24:09;;;;;;;17.63;8.77;;;;;;;;;;5031423;28;20025;-65
2022/03/29 06:26:39;;;;;;;19.35;9.00;;;;;;;;;;5031363;28;20049;-71
2022/03/29 06:29:05;;;;;;;18.95;9.02;;;;;;;;;;5031368;28;20444;-65
2022/03/29 06:31:31;;;;;;;15.73;9.32;;;;;;;;;;5031320;28;20036;-65
2022/03/29 06:33:57;;;;;;;19.27;9.70;;;;;;;;;;5031076;28;20017;-65
2022/03/29 06:36:23;;;;;;;17.80;9.35;;;;;;;;;;5031122;28;20025;-65
2022/03/29 06:38:49;;;;;;;17.80;10.00;;;;;;;;;;5031433;28;20026;-65
2022/03/29 06:41:15;;;;;;;17.42;9.90;;;;;;;;;;5031190;28;20585;-66
2022/03/29 06:43:41;;;;;;;18.27;9.73;;;;;;;;;;5031197;28;20013;-65
2022/03/29 06:46:08;;;;;;;18.00;9.60;;;;;;;;;;5031110;28;20021;-65
2022/03/29 06:48:38;;;;;;;20.67;10.05;;;;;;;;;;5030930;28;20473;-65
2022/03/29 06:51:04;;;;;;;20.40;9.50;;;;;;;;;;5030436;28;20075;-65
2022/03/29 06:53:29;;;;;;;15.35;9.15;;;;;;;;;;5030227;28;20101;-65
2022/03/29 06:55:55;;;;;;;16.20;9.15;;;;;;;;;;5030861;28;20387;-65
2022/03/29 06:58:20;;;;;;;18.48;9.70;;;;;;;;;;5030469;28;20255;-65
2022/03/29 07:00:46;;;;;;;17.48;9.30;;;;;;;;;;5030699;28;20021;-65
2022/03/29 07:03:12;;;;;;;17.55;9.18;;;;;;;;;;5029302;28;20029;-65
2022/03/29 07:05:42;;;;;;;16.30;9.15;;;;;;;;;;5030699;28;20037;-65
2022/03/29 07:08:10;;;;;;;17.30;9.60;;;;;;;;;;5030539;28;20112;-65
2022/03/29 07:13:23;;;;;;;17.95;9.90;;;;;;;;;;5030648;28;20044;-65
2022/03/29 07:15:50;;;;;;;17.67;9.65;;;;;;;;;;5029196;28;20030;-65
2022/03/29 07:18:16;;;;;;;21.95;10.23;;;;;;;;;;5030281;28;20029;-65
2022/03/29 07:20:41;;;;;;;17.27;10.13;;;;;;;;;;5030509;28;20363;-65
2022/03/29 07:23:07;;;;;;;18.92;9.80;;;;;;;;;;5030444;28;20043;-65
2022/03/29 07:25:33;;;;;;;25.08;10.70;;;;;;;;;;5030603;28;20029;-65
2022/03/29 07:27:59;;;;;;;21.33;10.50;;;;;;;;;;5030236;28;20025;-65
2022/03/29 07:30:25;;;;;;;19.23;10.68;;;;;;;;;;5030309;28;20448;-65
2022/03/29 07:32:54;;;;;;;18.98;10.10;;;;;;;;;;5029959;28;20520;-65
2022/03/29 07:35:22;;;;;;;17.77;11.15;;;;;;;;;;5030608;28;20025;-65
2022/03/29 07:37:48;;;;;;;25.55;11.05;;;;;;;;;;5030460;28;20032;-65
2022/03/29 07:40:16;;;;;;;20.92;11.30;;;;;;;;;;5029867;28;20465;-65
2022/03/29 07:42:42;;;;;;;19.88;10.85;;;;;;;;;;5030055;28;20497;-65
2022/03/29 07:45:11;;;;;;;19.48;10.82;;;;;;;;;;5030228;28;20113;-68
2022/03/29 07:47:37;;;;;;;18.55;10.95;;;;;;;;;;5029644;28;20101;-65
2022/03/29 07:50:06;;;;;;;19.50;10.63;;;;;;;;;;5030084;28;20165;-65
2022/03/29 07:52:36;;;;;;;16.92;10.40;;;;;;;;;;5029977;28;20029;-65
2022/03/29 07:55:03;;;;;;;17.60;10.82;;;;;;;;;;5030270;28;20079;-65
2022/03/29 07:57:28;;;;;;;18.83;10.20;;;;;;;;;;5029849;28;20033;-65
2022/03/29 07:59:54;;;;;;;28.40;10.95;;;;;;;;;;5029698;28;20030;-65
2022/03/29 08:02:19;;;;;;;19.63;11.32;;;;;;;;;;5029879;28;20036;-65
2022/03/29 08:04:45;;;;;;;22.08;10.80;;;;;;;;;;5033841;28;20022;-65
2022/03/29 08:07:11;;;;;;;17.08;10.43;;;;;;;;;;5033775;28;20052;-65
2022/03/29 08:09:37;;;;;;;16.30;10.60;;;;;;;;;;5033809;28;20100;-65
2022/03/29 08:12:02;;;;;;;16.98;10.55;;;;;;;;;;5033969;28;20017;-65
2022/03/29 08:14:28;;;;;;;19.65;10.35;;;;;;;;;;5049135;28;20032;-65
2022/03/29 08:16:55;;;;;;;16.88;10.43;;;;;;;;;;5033922;28;20022;-65
2022/03/29 08:19:21;;;;;;;17.48;10.63;;;;;;;;;;5033606;28;20033;-65
2022/03/29 08:21:49;;;;;;;20.05;11.38;;;;;;;;;;5033503;28;20029;-65
2022/03/29 08:24:25;;;;;;;22.33;11.27;;;;;;;;;;5033511;28;20025;-65
2022/03/29 08:26:53;;;;;;;16.33;10.60;;;;;;;;;;5033776;28;20017;-65
2022/03/29 08:29:21;;;;;;;19.55;11.07;;;;;;;;;;5033505;28;20037;-66
2022/03/29 08:31:49;;;;;;;20.48;10.50;;;;;;;;;;5033755;28;20025;-65
2022/03/29 08:34:16;;;;;;;18.23;9.93;;;;;;;;;;5033571;28;20030;-65
2022/03/29 08:36:41;;;;;;;19.90;10.73;;;;;;;;;;5033662;28;20488;-66
2022/03/29 08:39:07;;;;;;;20.67;10.80;;;;;;;;;;5033093;28;20064;-65
2022/03/29 08:41:44;;;;;;;19.17;11.07;;;;;;;;;;5033179;28;20029;-65
2022/03/29 08:44:10;;;;;;;22.13;11.27;;;;;;;;;;5033198;28;20037;-65
2022/03/29 08:46:38;;;;;;;18.77;10.25;;;;;;;;;;5033494;28;20017;-65
2022/03/29 08:49:08;;;;;;;19.05;10.05;;;;;;;;;;5033028;28;20026;-65
2022/03/29 08:51:36;;;;;;;17.27;10.43;;;;;;;;;;5033242;28;20080;-65
2022/03/29 08:54:01;;;;;;;15.90;11.20;;;;;;;;;;5032980;28;20028;-65
2022/03/29 08:56:27;;;;;;;19.70;11.20;;;;;;;;;;5033179;28;20021;-65
2022/03/29 08:58:53;;;;;;;17.40;9.93;;;;;;;;;;5032814;28;20030;-65
2022/03/29 09:01:19;;;;;;;18.27;9.98;;;;;;;;;;5032988;28;20029;-65
2022/03/29 09:03:46;;;;;;;18.20;11.07;;;;;;;;;;5032680;28;20029;-66
2022/03/29 09:06:11;;;;;;;17.65;10.60;;;;;;;;;;5032868;28;20167;-65
2022/03/29 09:08:47;;;;;;;21.88;11.00;;;;;;;;;;5031491;28;20158;-65
2022/03/29 09:11:14;;;;;;;23.67;11.10;;;;;;;;;;5032691;28;20022;-65
2022/03/29 09:13:40;;;;;;;19.35;10.68;;;;;;;;;;5032677;28;20026;-65
2022/03/29 09:16:08;;;;;;;17.30;10.82;;;;;;;;;;5032370;28;20057;-65
2022/03/29 09:18:34;;;;;;;17.98;10.68;;;;;;;;;;5032459;28;20040;-65
2022/03/29 09:21:11;;;;;;;20.88;11.30;;;;;;;;;;5032599;28;20096;-65
2022/03/29 09:23:37;;;;;;;16.92;10.25;;;;;;;;;;5032564;28;20223;-66
2022/03/29 09:26:04;;;;;;;16.08;11.07;;;;;;;;;;5032733;28;20025;-65
2022/03/29 09:28:37;;;;;;;18.83;10.90;;;;;;;;;;5032363;28;20029;-65
2022/03/29 09:31:18;;;;;;;16.17;10.27;;;;;;;;;;5032346;28;20029;-68
2022/03/29 09:33:43;;;;;;;;;;;;;;;;;;5032431;28;20133;-66
2022/03/29 09:36:12;;;;;;;18.98;9.70;;;;;;;;;;5032586;28;19955;-66
2022/03/29 09:38:41;;;;;;;15.85;9.82;;;;;;;;;;5032173;28;20022;-65
2022/03/29 09:41:29;;;;;;;15.52;10.07;;;;;;;;;;5032285;28;20022;-65
2022/03/29 09:44:16;;;;;;;23.30;9.93;;;;;;;;;;5032075;28;20034;-65
2022/03/29 09:46:59;;;;;;;15.95;10.02;;;;;;;;;;5031978;28;20013;-65
2022/03/29 09:49:26;;;;;;;23.45;10.43;;;;;;;;;;5031968;28;20029;-65
2022/03/29 09:52:09;;;;;;;16.75;9.70;;;;;;;;;;5032042;28;20022;-66
2022/03/29 09:54:36;;;;;;;15.55;9.60;;;;;;;;;;5031911;28;20033;-66
2022/03/29 09:57:01;;;;;;;16.95;9.70;;;;;;;;;;5032216;28;20022;-65
2022/03/29 09:59:27;;;;;;;16.33;9.30;;;;;;;;;;5031818;28;20496;-65
2022/03/29 10:01:56;;;;;;;17.13;9.80;;;;;;;;;;5031667;28;20091;-65
2022/03/29 10:04:23;;;;;;;16.67;10.10;;;;;;;;;;5031590;28;20038;-66
2022/03/29 10:06:52;;;;;;;16.70;9.85;;;;;;;;;;5031863;28;20547;-65
2022/03/29 10:09:27;;;;;;;15.32;9.82;;;;;;;;;;5031686;28;20029;-66
2022/03/29 10:11:58;;;;;;;17.88;9.95;;;;;;;;;;5031689;28;20036;-66
2022/03/29 10:14:25;;;;;;;15.80;9.95;;;;;;;;;;5031570;28;20567;-65
2022/03/29 10:16:53;;;;;;;18.30;10.57;;;;;;;;;;5031705;28;20040;-67
2022/03/29 10:19:20;;;;;;;15.55;9.93;;;;;;;;;;5031225;28;20039;-65
2022/03/29 10:21:46;;;;;;;19.67;10.23;;;;;;;;;;5031351;28;20033;-66
2022/03/29 10:24:16;;;;;;;14.70;9.52;;;;;;;;;;5031469;28;20095;-65
2022/03/29 10:26:43;;;;;;;17.25;10.07;;;;;;;;;;5031651;28;20029;-66
2022/03/29 10:29:10;;;;;;;14.82;9.73;;;;;;;;;;5031825;28;20021;-65
2022/03/29 10:31:40;;;;;;;15.80;9.68;;;;;;;;;;5031357;28;20108;-65
2022/03/29 10:34:10;;;;;;;;;;;;;;;;;;5031454;28;20030;-66
2022/03/29 10:36:59;;;;;;;14.98;9.57;;;;;;;;;;5031299;28;19909;-66
2022/03/29 10:39:57;;;;;;;16.52;9.45;;;;;;;;;;5031008;28;20480;-65
2022/03/29 10:42:28;;;;;;;15.60;9.05;;;;;;;;;;5030964;28;20104;-65
2022/03/29 10:45:24;;;;;;;13.75;9.20;;;;;;;;;;5031038;28;20381;-65
2022/03/29 10:48:09;;;;;;;17.35;9.38;;;;;;;;;;5031020;28;20516;-66
2022/03/29 10:50:54;;;;;;;13.60;9.15;;;;;;;;;;5030863;28;20033;-66
2022/03/29 10:53:27;;;;;;;14.73;9.23;;;;;;;;;;5031001;28;20033;-66
2022/03/29 10:56:23;;;;;;;15.63;9.45;;;;;;;;;;5030731;28;20025;-65
2022/03/29 10:59:08;;;;;;;16.48;9.65;;;;;;;;;;5030744;28;20034;-65
2022/03/29 11:01:40;;;;;;;15.18;9.30;;;;;;;;;;5030489;28;20083;-65
2022/03/29 11:04:12;;;;;;;16.17;9.40;;;;;;;;;;5030856;28;20017;-65
2022/03/29 11:07:07;;;;;;;17.27;10.25;;;;;;;;;;5030724;28;20041;-65
2022/03/29 11:09:33;;;;;;;15.20;9.82;;;;;;;;;;5030453;28;20403;-64
2022/03/29 11:11:59;;;;;;;17.02;9.93;;;;;;;;;;5030568;28;20025;-67
2022/03/29 11:14:28;;;;;;;16.20;9.90;;;;;;;;;;5030527;28;20032;-66
2022/03/29 11:17:11;;;;;;;16.67;10.68;;;;;;;;;;5029261;28;20421;-65
2022/03/29 11:19:50;;;;;;;15.65;9.55;;;;;;;;;;5030348;28;20033;-65
2022/03/29 11:22:21;;;;;;;16.73;10.10;;;;;;;;;;5030410;28;20174;-65
2022/03/29 11:24:53;;;;;;;18.15;10.45;;;;;;;;;;5030331;28;20097;-66
2022/03/29 11:27:27;;;;;;;17.25;10.50;;;;;;;;;;5030697;28;20025;-65
2022/03/29 11:29:54;;;;;;;16.83;10.82;;;;;;;;;;5030232;28;20245;-66
2022/03/29 11:32:19;;;;;;;17.70;10.10;;;;;;;;;;5030278;28;20032;-65
2022/03/29 11:34:50;;;;;;;18.08;10.32;;;;;;;;;;5030271;28;20378;-66
2022/03/29 11:37:29;;;;;;;;;;;;;;;;;;5030844;28;20056;-66
2022/03/29 11:39:56;;;;;;;18.83;9.75;;;;;;;;;;5030122;28;19924;-65
2022/03/29 11:42:21;;;;;;;16.42;10.02;;;;;;;;;;5030149;28;20107;-65
2022/03/29 11:44:48;;;;;;;14.95;9.73;;;;;;;;;;5030101;28;20048;-65
2022/03/29 11:47:13;;;;;;;15.88;9.30;;;;;;;;;;5029952;28;20030;-67
2022/03/29 11:49:41;;;;;;;16.00;9.90;;;;;;;;;;5030141;28;20082;-66
2022/03/29 11:52:08;;;;;;;16.90;10.10;;;;;;;;;;5030008;28;20048;-65
2022/03/29 11:54:46;;;;;;;17.92;10.00;;;;;;;;;;5030428;28;20033;-65
2022/03/29 11:57:30;;;;;;;16.70;10.25;;;;;;;;;;5030191;28;20104;-65
2022/03/29 11:59:56;;;;;;;19.27;9.88;;;;;;;;;;5030006;28;20624;-65
2022/03/29 12:02:23;;;;;;;16.48;10.05;;;;;;;;;;5029775;28;20033;-66
2022/03/29 12:04:52;;;;;;;17.05;10.05;;;;;;;;;;5030081;28;20029;-65
2022/03/29 12:07:44;;;;;;;19.65;10.15;;;;;;;;;;5030061;28;20112;-65
2022/03/29 12:10:15;;;;;;;14.57;10.05;;;;;;;;;;5029920;28;20378;-65
2022/03/29 12:12:49;;;;;;;20.98;10.00;;;;;;;;;;5029955;28;20029;-65
2022/03/29 12:15:19;;;;;;;21.98;10.23;;;;;;;;;;5029702;28;20025;-66
2022/03/29 12:18:40;;;;;;;15.35;10.48;;;;;;;;;;5029946;28;20025;-66
2022/03/29 12:20:41;;;;;;;14.75;9.95;;;;;;;;;;5029357;28;20037;-65
2022/03/29 12:23:27;;;;;;;15.60;9.30;;;;;;;;;;5029945;28;20409;-66
2022/03/29 12:25:55;;;;;;;15.18;9.52;;;;;;;;;;5029510;28;20021;-66
2022/03/29 12:28:22;;;;;;;14.00;9.10;;;;;;;;;;5029968;28;20049;-65
2022/03/29 12:30:49;;;;;;;18.83;9.93;;;;;;;;;;5029636;28;20140;-65
2022/03/29 12:33:15;;;;;;;17.02;10.10;;;;;;;;;;5029570;28;20045;-65
2022/03/29 12:35:41;;;;;;;16.73;10.18;;;;;;;;;;5029662;28;20033;-66
2022/03/29 12:38:11;;;;;;;16.90;9.75;;;;;;;;;;5029673;28;20497;-65
2022/03/29 12:40:37;;;;;;;14.32;9.48;;;;;;;;;;5029440;28;20052;-65
2022/03/29 12:43:08;;;;;;;17.58;10.13;;;;;;;;;;5029511;28;20104;-65
2022/03/29 12:45:34;;;;;;;16.27;10.30;;;;;;;;;;5029477;28;20029;-65
2022/03/29 12:48:04;;;;;;;13.55;9.82;;;;;;;;;;5029548;28;20036;-65
2022/03/29 12:50:30;;;;;;;14.98;10.23;;;;;;;;;;5031240;28;20080;-66
2022/03/29 12:53:04;;;;;;;16.60;9.88;;;;;;;;;;5032961;28;20030;-65
2022/03/29 12:55:31;;;;;;;18.20;10.55;;;;;;;;;;5032966;28;20036;-65
2022/03/29 12:58:02;;;;;;;15.68;10.32;;;;;;;;;;5033104;28;20030;-66
2022/03/29 13:00:39;;;;;;;15.48;10.13;;;;;;;;;;5032761;28;20575;-65
2022/03/29 13:03:09;;;;;;;17.55;10.63;;;;;;;;;;5032940;28;20167;-66
2022/03/29 13:05:35;;;;;;;17.88;9.70;;;;;;;;;;5032903;28;20045;-66
2022/03/29 13:08:02;;;;;;;18.20;9.88;;;;;;;;;;5032924;28;20033;-65
2022/03/29 13:10:42;;;;;;;16.35;10.20;;;;;;;;;;5032870;28;20026;-65
2022/03/29 13:13:18;;;;;;;15.07;10.48;;;;;;;;;;5032699;28;20021;-65
2022/03/29 13:15:50;;;;;;;17.17;11.10;;;;;;;;;;5032777;28;20065;-65
2022/03/29 13:18:22;;;;;;;15.88;10.55;;;;;;;;;;5032741;28;20026;-65
2022/03/29 13:20:49;;;;;;;17.75;11.02;;;;;;;;;;5032691;28;20079;-65
2022/03/29 13:23:32;;;;;;;15.45;10.80;;;;;;;;;;5032634;28;20022;-65
2022/03/29 13:25:58;;;;;;;17.88;10.20;;;;;;;;;;5032542;28;20018;-65
2022/03/29 13:28:25;;;;;;;15.98;9.90;;;;;;;;;;5032625;28;20028;-65
2022/03/29 13:30:51;;;;;;;17.50;10.45;;;;;;;;;;5032529;28;20024;-65
2022/03/29 13:33:16;;;;;;;17.10;11.10;;;;;;;;;;5032162;28;20381;-65
2022/03/29 13:35:44;;;;;;;15.75;10.65;;;;;;;;;;5032596;28;20032;-65
2022/03/29 13:38:09;;;;;;;15.18;10.23;;;;;;;;;;5032297;28;20037;-65
2022/03/29 13:40:35;;;;;;;17.67;10.25;;;;;;;;;;5032555;28;20389;-66
2022/03/29 13:43:00;;;;;;;18.20;10.93;;;;;;;;;;5031961;28;20052;-65
2022/03/29 13:45:26;;;;;;;17.52;11.13;;;;;;;;;;5032286;28;20385;-65
2022/03/29 13:47:51;;;;;;;16.40;10.00;;;;;;;;;;5031728;28;20033;-65
2022/03/29 13:50:16;;;;;;;20.38;9.32;;;;;;;;;;5032564;28;20084;-65
2022/03/29 13:52:42;;;;;;;18.83;9.98;;;;;;;;;;5031823;28;20029;-65
2022/03/29 13:55:08;;;;;;;15.90;9.32;;;;;;;;;;5032356;28;20550;-65
2022/03/29 13:57:33;;;;;;;15.93;10.07;;;;;;;;;;5032147;28;20249;-65
2022/03/29 13:59:59;;;;;;;16.35;9.30;;;;;;;;;;5032230;28;20079;-65
2022/03/29 14:02:24;;;;;;;17.70;9.57;;;;;;;;;;5030974;28;20063;-65
2022/03/29 14:04:50;;;;;;;15.90;9.98;;;;;;;;;;5031789;28;20370;-64
2022/03/29 14:07:15;;;;;;;15.40;10.30;;;;;;;;;;5031527;28;20037;-65
2022/03/29 14:09:41;;;;;;;14.90;10.05;;;;;;;;;;5031895;28;20370;-65
2022/03/29 14:12:06;;;;;;;17.67;10.15;;;;;;;;;;5031862;28;20105;-64
2022/03/29 14:14:32;;;;;;;16.58;9.93;;;;;;;;;;5031988;28;20029;-64
2022/03/29 14:16:57;;;;;;;17.05;10.13;;;;;;;;;;5031346;28;20033;-65
2022/03/29 14:19:23;;;;;;;16.55;11.30;;;;;;;;;;5031601;28;20025;-64
2022/03/29 14:21:49;;;;;;;15.98;9.85;;;;;;;;;;5031331;28;20026;-64
2022/03/29 14:24:14;;;;;;;16.35;10.32;;;;;;;;;;5031559;28;20025;-65
2022/03/29 14:26:40;;;;;;;15.18;9.70;;;;;;;;;;5031385;28;20025;-64
2022/03/29 14:29:06;;;;;;;26.20;10.95;;;;;;;;;;5031599;28;20083;-65
2022/03/29 14:31:32;;;;;;;15.05;9.90;;;;;;;;;;5031329;28;20029;-65
2022/03/29 14:33:58;;;;;;;16.20;10.18;;;;;;;;;;5030896;28;20385;-65
2022/03/29 14:36:25;;;;;;;18.05;9.23;;;;;;;;;;5031199;28;20040;-65
2022/03/29 14:38:50;;;;;;;18.20;9.77;;;;;;;;;;5031132;28;20059;-65